Time;durP1;ratioP1;P1;durP2;ratioP2;P2;SDS_P1;SDS_P2;PMS_P1;PMS_P2;Temp;Humidity;BMP_temperature;BMP_pressure;BME280_temperature;BME280_humidity;BME280_pressure;Samples;Min_cycle;Max_cycle;Signal;HPM_P1;HPM_P2
2023/01/18 00:00:59;;;;;;;15.13;13.50;;;-1.10;99.90;;;;;;5043375;28;20525;-75
2023/01/18 00:03:26;;;;;;;13.80;12.40;;;-1.20;99.90;;;;;;5031394;28;20530;-76
2023/01/18 00:05:55;;;;;;;15.45;13.27;;;-1.30;99.90;;;;;;5046374;28;20422;-77
2023/01/18 00:08:22;;;;;;;14.77;13.23;;;-1.40;99.90;;;;;;5047097;28;20411;-76
2023/01/18 00:10:48;;;;;;;15.60;13.43;;;-1.50;99.90;;;;;;5042715;28;20442;-75
2023/01/18 00:13:15;;;;;;;15.60;14.00;;;-1.50;99.90;;;;;;5027656;28;20419;-75
2023/01/18 00:15:42;;;;;;;15.00;13.40;;;-1.60;99.90;;;;;;5028251;28;20533;-74
2023/01/18 00:18:09;;;;;;;16.65;14.48;;;-1.70;99.90;;;;;;5029909;28;20431;-75
2023/01/18 00:20:35;;;;;;;16.65;14.85;;;-1.70;99.90;;;;;;5029698;28;20434;-74
2023/01/18 00:23:04;;;;;;;18.17;16.27;;;-1.60;99.90;;;;;;5028341;28;20415;-74
2023/01/18 00:25:30;;;;;;;19.40;17.50;;;-1.50;99.90;;;;;;5027833;28;20438;-76
2023/01/18 00:27:57;;;;;;;23.15;18.50;;;-1.40;99.90;;;;;;5028209;28;20423;-75
2023/01/18 00:30:26;;;;;;;19.25;17.35;;;-1.30;99.90;;;;;;5031492;28;20426;-76
2023/01/18 00:32:55;;;;;;;23.02;19.30;;;-1.30;99.90;;;;;;5029257;28;21141;-76
2023/01/18 00:35:22;;;;;;;19.00;16.90;;;-1.20;99.90;;;;;;5031102;28;20430;-76
2023/01/18 00:37:50;;;;;;;18.80;16.80;;;-1.00;99.90;;;;;;5031768;28;20435;-76
2023/01/18 00:40:19;;;;;;;18.42;16.52;;;-0.90;99.90;;;;;;5030711;28;20415;-76
2023/01/18 00:45:30;;;;;;;19.70;17.60;;;-1.00;99.90;;;;;;5031723;28;20426;-75
2023/01/18 00:47:57;;;;;;;21.23;17.23;;;-1.00;99.90;;;;;;5031996;28;20517;-76
2023/01/18 00:50:23;;;;;;;18.88;16.88;;;-0.90;99.90;;;;;;5032266;28;20910;-75
2023/01/18 00:52:55;;;;;;;18.80;16.90;;;-1.00;99.90;;;;;;5030559;28;20506;-75
2023/01/18 00:55:24;;;;;;;18.20;16.30;;;-1.00;99.90;;;;;;5042754;28;20511;-76
2023/01/18 00:57:51;;;;;;;17.35;15.55;;;-1.10;99.90;;;;;;5050720;28;20421;-75
2023/01/18 01:00:19;;;;;;;17.80;16.00;;;-1.20;99.90;;;;;;5037177;28;20419;-74
2023/01/18 01:02:46;;;;;;;18.08;15.98;;;-1.30;99.90;;;;;;5028830;28;20550;-74
2023/01/18 01:08:03;;;;;;;18.60;16.70;;;-1.50;99.90;;;;;;5027008;28;20573;-76
2023/01/18 01:10:31;;;;;;;20.75;17.35;;;-1.50;99.90;;;;;;5031600;28;20553;-75
2023/01/18 01:26:44;;;;;;;17.60;15.70;;;-1.30;99.90;;;;;;5030785;28;20476;-75
2023/01/18 01:29:11;;;;;;;17.80;16.00;;;-1.30;99.90;;;;;;5040937;28;20426;-76
2023/01/18 01:31:38;;;;;;;17.48;15.60;;;-1.30;99.90;;;;;;5047810;28;20483;-76
2023/01/18 01:34:05;;;;;;;18.52;15.55;;;-1.30;99.90;;;;;;5046280;28;20439;-76
2023/01/18 01:36:32;;;;;;;17.90;16.10;;;-1.30;99.90;;;;;;5037449;28;20411;-75
2023/01/18 01:38:59;;;;;;;17.77;15.93;;;-1.40;99.90;;;;;;5029505;28;20881;-76
2023/01/18 01:41:28;;;;;;;17.95;16.15;;;-1.40;99.90;;;;;;5029088;28;20435;-76
2023/01/18 01:43:57;;;;;;;17.75;16.05;;;-1.30;99.90;;;;;;5032388;28;20414;-76
2023/01/18 01:46:29;;;;;;;17.50;15.70;;;-1.30;99.90;;;;;;5031831;28;20438;-76
2023/01/18 01:49:05;;;;;;;20.48;17.20;;;-1.40;99.90;;;;;;5029587;28;20426;-75
2023/01/18 01:51:34;;;;;;;18.08;16.27;;;-1.30;99.90;;;;;;5028157;28;20510;-74
2023/01/18 01:54:04;;;;;;;18.33;16.42;;;-1.30;99.90;;;;;;5029271;28;21097;-74
2023/01/18 01:56:31;;;;;;;17.95;16.25;;;-1.30;99.90;;;;;;5029730;28;20446;-75
2023/01/18 01:59:02;;;;;;;16.88;15.15;;;-1.30;99.90;;;;;;5027231;28;20427;-74
2023/01/18 02:01:30;;;;;;;18.20;16.30;;;-1.40;99.90;;;;;;5033113;28;20448;-75
2023/01/18 02:04:01;;;;;;;17.83;15.63;;;-1.30;99.90;;;;;;5027863;28;20426;-76
2023/01/18 02:06:32;;;;;;;17.20;15.50;;;-1.40;99.90;;;;;;5024278;28;20427;-74
2023/01/18 02:09:00;;;;;;;18.30;16.40;;;-1.50;99.90;;;;;;5024129;28;20430;-75
2023/01/18 02:11:28;;;;;;;17.55;15.70;;;-1.50;99.90;;;;;;5030143;28;20431;-74
2023/01/18 02:13:58;;;;;;;18.27;16.38;;;-1.40;99.90;;;;;;5036812;28;20425;-75
2023/01/18 02:16:39;;;;;;;18.77;15.67;;;-1.30;99.90;;;;;;5071058;28;20450;-76
2023/01/18 02:19:27;;;;;;;16.27;14.63;;;-1.30;99.90;;;;;;5040588;28;20460;-75
2023/01/18 02:21:58;;;;;;;17.10;15.30;;;-1.30;99.90;;;;;;5048648;28;20430;-75
2023/01/18 02:24:47;;;;;;;18.33;16.30;;;-1.30;99.90;;;;;;5042928;28;20514;-74
2023/01/18 02:27:22;;;;;;;16.30;14.80;;;-1.30;99.90;;;;;;5028077;28;20717;-76
2023/01/18 02:30:07;;;;;;;18.65;15.30;;;-1.40;99.90;;;;;;5030229;28;20442;-75
2023/01/18 02:32:46;;;;;;;17.30;15.60;;;-1.40;99.90;;;;;;5023320;28;20496;-75
2023/01/18 02:35:19;;;;;;;16.90;15.30;;;-1.50;99.90;;;;;;5018935;28;20435;-75
2023/01/18 02:37:53;;;;;;;18.90;16.00;;;-1.50;99.90;;;;;;5026059;28;20440;-75
2023/01/18 02:40:27;;;;;;;18.40;16.50;;;-1.50;99.90;;;;;;5024787;28;20453;-75
2023/01/18 02:48:34;;;;;;;19.77;17.13;;;-1.10;99.90;;;;;;5025558;28;20425;-77
2023/01/18 02:51:00;;;;;;;19.30;17.38;;;-1.10;99.90;;;;;;5025328;28;20423;-77
2023/01/18 02:53:28;;;;;;;18.13;16.33;;;-1.10;99.90;;;;;;5021071;28;20445;-75
2023/01/18 02:55:58;;;;;;;18.20;16.30;;;-1.20;99.90;;;;;;5020628;28;20934;-74
2023/01/18 02:58:41;;;;;;;18.17;15.67;;;-1.20;99.90;;;;;;5021770;28;20480;-76
2023/01/18 03:01:13;;;;;;;18.17;16.27;;;-1.20;99.90;;;;;;5028926;28;20440;-76
2023/01/18 03:03:43;;;;;;;16.92;15.23;;;-1.10;99.90;;;;;;5031370;28;20444;-75
2023/01/18 03:06:10;;;;;;;16.55;14.82;;;-1.10;99.90;;;;;;5033783;28;20427;-76
2023/01/18 03:08:41;;;;;;;17.65;15.85;;;-1.30;99.90;;;;;;5029858;28;20850;-74
2023/01/18 03:11:12;;;;;;;19.00;17.00;;;-1.40;99.90;;;;;;5028371;28;20488;-77
2023/01/18 03:13:57;;;;;;;17.52;15.73;;;-1.40;99.90;;;;;;5030264;28;20854;-77
2023/01/18 03:16:30;;;;;;;19.08;17.17;;;-1.50;99.90;;;;;;5023665;28;20514;-76
2023/01/18 03:19:03;;;;;;;18.83;16.93;;;-1.50;99.90;;;;;;5019786;28;20438;-75
2023/01/18 03:21:37;;;;;;;18.65;16.75;;;-1.60;99.90;;;;;;5033381;28;20454;-75
2023/01/18 03:24:06;;;;;;;18.95;17.00;;;-1.50;99.90;;;;;;5035441;28;20427;-75
2023/01/18 03:26:39;;;;;;;22.02;19.10;;;-1.60;99.90;;;;;;5034406;28;20462;-76
2023/01/18 03:34:47;;;;;;;21.73;19.23;;;-1.10;99.90;;;;;;5038285;28;20433;-74
2023/01/18 03:37:22;;;;;;;21.90;19.60;;;-1.10;99.90;;;;;;5039390;28;20434;-74
2023/01/18 03:39:53;;;;;;;20.00;17.90;;;-1.20;99.90;;;;;;5037310;28;20534;-75
2023/01/18 03:42:23;;;;;;;19.10;17.15;;;-1.20;99.90;;;;;;5035508;28;20449;-74
2023/01/18 03:44:55;;;;;;;19.50;17.40;;;-1.30;99.90;;;;;;5030970;28;20554;-74
2023/01/18 03:47:24;;;;;;;19.52;17.42;;;-1.30;99.90;;;;;;5023820;28;20435;-74
2023/01/18 03:49:52;;;;;;;19.80;17.70;;;-1.30;99.90;;;;;;5026648;28;20447;-75
2023/01/18 03:52:22;;;;;;;18.48;16.48;;;-1.40;99.90;;;;;;5027147;28;20442;-75
2023/01/18 03:54:56;;;;;;;21.33;17.60;;;-1.40;99.90;;;;;;5026625;28;20446;-75
2023/01/18 03:57:28;;;;;;;20.00;17.90;;;-1.40;99.90;;;;;;5020158;28;20430;-76
2023/01/18 03:59:55;;;;;;;21.75;18.30;;;-1.30;99.90;;;;;;5033451;28;20568;-76
2023/01/18 04:02:26;;;;;;;20.67;17.50;;;-1.20;99.90;;;;;;5034147;28;20450;-76
2023/01/18 04:04:57;;;;;;;22.23;16.60;;;-1.10;99.90;;;;;;5036087;28;20523;-75
2023/01/18 04:07:25;;;;;;;21.27;17.67;;;-1.00;99.90;;;;;;5042574;28;20481;-75
2023/01/18 04:09:52;;;;;;;18.88;16.98;;;-1.00;99.90;;;;;;5038063;28;20489;-77
2023/01/18 04:12:19;;;;;;;17.30;15.50;;;-0.90;99.90;;;;;;5034879;28;20546;-76
2023/01/18 04:14:45;;;;;;;19.55;16.92;;;-1.00;99.90;;;;;;5037912;28;20439;-76
2023/01/18 04:17:12;;;;;;;17.75;15.85;;;-1.00;99.90;;;;;;5033690;28;20431;-76
2023/01/18 04:19:40;;;;;;;18.33;16.38;;;-1.00;99.90;;;;;;5028120;28;20455;-77
2023/01/18 04:22:07;;;;;;;18.00;16.20;;;-1.00;99.90;;;;;;5028608;28;20913;-76
2023/01/18 04:24:34;;;;;;;18.70;16.30;;;-1.00;99.90;;;;;;5030206;28;20450;-77
2023/01/18 04:27:01;;;;;;;17.95;16.05;;;-1.00;99.90;;;;;;5028971;28;20450;-77
2023/01/18 04:29:28;;;;;;;18.95;17.02;;;-1.10;99.90;;;;;;5029609;28;20435;-75
2023/01/18 04:31:55;;;;;;;19.25;16.58;;;-1.10;99.90;;;;;;5028069;28;20541;-78
2023/01/18 04:34:22;;;;;;;17.88;15.98;;;-1.00;99.90;;;;;;5023904;28;20904;-77
2023/01/18 04:36:51;;;;;;;19.20;15.80;;;-0.90;99.90;;;;;;5030415;28;20504;-74
2023/01/18 04:39:18;;;;;;;22.25;17.33;;;-1.00;99.90;;;;;;5037167;28;20479;-76
2023/01/18 04:41:45;;;;;;;17.98;16.08;;;-0.90;99.90;;;;;;5039431;28;20427;-76
2023/01/18 04:44:12;;;;;;;17.90;16.00;;;-0.90;99.90;;;;;;5046765;28;20496;-75
2023/01/18 04:46:39;;;;;;;19.30;15.57;;;-1.00;99.90;;;;;;5032131;28;20438;-77
2023/01/18 04:49:10;;;;;;;17.58;15.75;;;-1.10;99.90;;;;;;5024375;28;20434;-77
2023/01/18 04:51:38;;;;;;;19.73;15.30;;;-1.30;99.90;;;;;;5024993;28;20469;-77
2023/01/18 04:54:06;;;;;;;18.08;16.17;;;-1.30;99.90;;;;;;5032867;28;20431;-76
2023/01/18 04:56:33;;;;;;;19.00;17.00;;;-1.40;99.90;;;;;;5035197;28;20445;-76
2023/01/18 04:59:00;;;;;;;20.00;17.40;;;-1.40;99.90;;;;;;5034655;28;20513;-76
2023/01/18 05:01:28;;;;;;;17.90;15.50;;;-1.40;99.90;;;;;;5030973;28;20427;-76
2023/01/18 05:03:55;;;;;;;19.65;17.55;;;-1.40;99.90;;;;;;5020652;28;20909;-75
2023/01/18 05:06:22;;;;;;;20.13;18.10;;;-1.30;99.90;;;;;;5029055;28;20536;-76
2023/01/18 05:08:50;;;;;;;20.00;17.90;;;-1.30;99.90;;;;;;5027283;28;20450;-77
2023/01/18 05:11:21;;;;;;;19.27;17.27;;;-1.40;99.90;;;;;;5025280;28;20502;-76
2023/01/18 05:13:48;;;;;;;19.20;17.02;;;-1.40;99.90;;;;;;5018961;28;20823;-76
2023/01/18 05:16:17;;;;;;;17.13;15.52;;;-1.50;99.90;;;;;;5019311;28;20436;-75
2023/01/18 05:18:44;;;;;;;19.83;17.83;;;-1.60;99.90;;;;;;5024725;28;20442;-76
2023/01/18 05:21:11;;;;;;;18.92;16.92;;;-1.60;99.90;;;;;;5023347;28;20673;-75
2023/01/18 05:23:39;;;;;;;19.10;17.10;;;-1.60;99.90;;;;;;5023279;28;20444;-75
2023/01/18 05:26:13;;;;;;;19.83;17.83;;;-1.70;99.90;;;;;;5023580;28;20525;-76
2023/01/18 05:28:41;;;;;;;19.80;17.75;;;-1.80;99.90;;;;;;5023476;28;20861;-75
2023/01/18 05:31:08;;;;;;;20.10;18.00;;;-1.90;99.90;;;;;;5024471;28;20453;-76
2023/01/18 05:33:35;;;;;;;18.58;16.70;;;-1.90;99.90;;;;;;5023830;28;20553;-77
2023/01/18 05:36:03;;;;;;;19.48;17.48;;;-2.00;99.90;;;;;;5029346;28;20422;-76
2023/01/18 05:38:29;;;;;;;22.58;18.65;;;-2.10;99.90;;;;;;5029393;28;20446;-77
2023/01/18 05:40:56;;;;;;;20.45;18.20;;;-2.10;99.90;;;;;;5029336;28;20430;-77
2023/01/18 05:43:25;;;;;;;24.35;20.63;;;-2.00;99.90;;;;;;5030936;28;20426;-77
2023/01/18 05:45:53;;;;;;;22.50;19.23;;;-1.90;99.90;;;;;;5031875;28;20446;-76
2023/01/18 05:48:21;;;;;;;20.13;17.93;;;-1.80;99.90;;;;;;5024510;28;20489;-77
2023/01/18 05:50:48;;;;;;;19.80;17.65;;;-1.80;99.90;;;;;;5022052;28;20923;-78
2023/01/18 05:53:16;;;;;;;20.05;17.85;;;-1.80;99.90;;;;;;5023137;28;20443;-78
2023/01/18 05:55:54;;;;;;;20.00;17.90;;;-1.80;99.90;;;;;;5036400;28;20446;-77
2023/01/18 05:58:21;;;;;;;20.80;17.27;;;-1.80;99.90;;;;;;5039735;28;20424;-76
2023/01/18 06:00:47;;;;;;;20.30;16.58;;;-1.80;99.90;;;;;;5044627;28;20479;-75
2023/01/18 06:03:22;;;;;;;20.50;16.88;;;-1.90;99.90;;;;;;5048422;28;20423;-77
2023/01/18 06:05:50;;;;;;;18.85;16.85;;;-1.80;99.90;;;;;;5043457;28;20427;-76
2023/01/18 06:08:17;;;;;;;19.98;17.48;;;-1.80;99.90;;;;;;5043504;28;20481;-77
2023/01/18 06:10:43;;;;;;;20.15;18.10;;;-1.80;99.90;;;;;;5039961;28;20444;-76
2023/01/18 06:13:10;;;;;;;20.42;18.30;;;-1.80;99.90;;;;;;5031344;28;20426;-76
2023/01/18 06:15:37;;;;;;;25.70;20.17;;;-1.80;99.90;;;;;;5029661;28;20434;-76
2023/01/18 06:18:07;;;;;;;25.20;20.90;;;-1.70;99.90;;;;;;5028392;28;20525;-78
2023/01/18 06:20:35;;;;;;;25.90;20.52;;;-1.60;99.90;;;;;;5028256;28;20431;-79
2023/01/18 06:23:02;;;;;;;22.55;19.60;;;-1.60;99.90;;;;;;5028070;28;20427;-78
2023/01/18 06:25:29;;;;;;;25.80;20.60;;;-1.60;99.90;;;;;;5030702;28;20446;-76
2023/01/18 06:27:55;;;;;;;22.67;20.10;;;-1.60;99.90;;;;;;5030376;28;20462;-77
2023/01/18 06:30:23;;;;;;;23.53;19.90;;;-1.70;99.90;;;;;;5029196;28;22302;-77
2023/01/18 06:32:50;;;;;;;23.30;18.80;;;-1.70;99.90;;;;;;5026061;28;20433;-78
2023/01/18 06:35:17;;;;;;;25.43;20.40;;;-1.70;99.90;;;;;;5028790;28;20953;-75
2023/01/18 06:37:45;;;;;;;24.13;19.63;;;-1.80;99.90;;;;;;5030077;28;20442;-76
2023/01/18 06:40:13;;;;;;;25.52;20.80;;;-1.80;99.90;;;;;;5028334;28;20434;-76
2023/01/18 06:42:39;;;;;;;24.70;20.77;;;-1.70;99.90;;;;;;5028696;28;20466;-75
2023/01/18 06:45:07;;;;;;;25.80;20.88;;;-1.70;99.90;;;;;;5029576;28;20422;-77
2023/01/18 06:47:34;;;;;;;26.23;21.40;;;-1.70;99.90;;;;;;5025649;28;21036;-76
2023/01/18 06:50:00;;;;;;;23.83;20.98;;;-1.80;99.90;;;;;;5030898;28;20411;-75
2023/01/18 06:52:29;;;;;;;23.33;20.83;;;-1.80;99.90;;;;;;5034190;28;20427;-76
2023/01/18 06:54:57;;;;;;;24.92;20.25;;;-1.80;99.90;;;;;;5039244;28;20443;-77
2023/01/18 06:57:24;;;;;;;20.55;18.45;;;-1.90;99.90;;;;;;5040110;28;20422;-77
2023/01/18 06:59:52;;;;;;;22.00;19.70;;;-2.00;99.90;;;;;;5040845;28;20496;-77
2023/01/18 07:02:19;;;;;;;24.13;20.20;;;-1.90;99.90;;;;;;5041391;28;20469;-76
2023/01/18 07:04:46;;;;;;;24.40;21.90;;;-1.90;99.90;;;;;;5039909;28;20407;-77
2023/01/18 07:07:14;;;;;;;23.15;20.70;;;-1.80;99.90;;;;;;5032288;28;20410;-76
2023/01/18 07:09:41;;;;;;;22.17;19.52;;;-1.80;99.90;;;;;;5031263;28;20449;-75
2023/01/18 07:12:09;;;;;;;21.50;19.30;;;-1.80;99.90;;;;;;5027154;28;20462;-76
2023/01/18 07:14:36;;;;;;;23.15;20.75;;;-1.80;99.90;;;;;;5029828;28;20523;-76
2023/01/18 07:17:03;;;;;;;21.70;19.40;;;-1.80;99.90;;;;;;5031260;28;20502;-78
2023/01/18 07:19:30;;;;;;;21.65;19.35;;;-1.80;99.90;;;;;;5030224;28;20557;-76
2023/01/18 07:21:57;;;;;;;23.08;20.63;;;-1.80;99.90;;;;;;5030488;28;20415;-76
2023/01/18 07:24:24;;;;;;;22.02;19.75;;;-1.80;99.90;;;;;;5031896;28;20426;-76
2023/01/18 07:26:51;;;;;;;22.33;19.92;;;-1.80;99.90;;;;;;5029100;28;20419;-78
2023/01/18 07:29:19;;;;;;;23.13;20.23;;;-1.90;99.90;;;;;;5029447;28;20430;-76
2023/01/18 07:31:46;;;;;;;24.23;21.60;;;-1.90;99.90;;;;;;5028050;28;20911;-76
2023/01/18 07:34:13;;;;;;;23.67;21.17;;;-1.90;99.90;;;;;;5025416;28;20956;-77
2023/01/18 07:36:40;;;;;;;23.08;20.65;;;-1.80;99.90;;;;;;5026675;28;20415;-77
2023/01/18 07:39:08;;;;;;;21.95;19.65;;;-1.80;99.90;;;;;;5026896;28;20462;-76
2023/01/18 07:41:35;;;;;;;24.40;19.65;;;-1.80;99.90;;;;;;5028421;28;20778;-76
2023/01/18 07:44:02;;;;;;;22.20;19.58;;;-1.80;99.90;;;;;;5027649;28;20438;-78
2023/01/18 07:46:30;;;;;;;21.13;19.02;;;-1.80;99.90;;;;;;5027254;28;20439;-76
2023/01/18 07:48:57;;;;;;;21.80;19.50;;;-1.90;99.90;;;;;;5026802;28;20437;-75
2023/01/18 07:51:23;;;;;;;21.88;18.80;;;-1.90;99.90;;;;;;5027199;28;20546;-75
2023/01/18 07:53:53;;;;;;;22.60;19.95;;;-1.90;99.90;;;;;;5028050;28;20423;-75
2023/01/18 07:56:21;;;;;;;25.08;20.73;;;-1.90;99.90;;;;;;5041544;28;20421;-76
2023/01/18 07:58:48;;;;;;;22.45;20.25;;;-1.90;99.90;;;;;;5032801;28;20522;-76
2023/01/18 08:01:17;;;;;;;23.40;19.45;;;-1.90;99.90;;;;;;5031232;28;20482;-77
2023/01/18 08:03:47;;;;;;;22.67;20.17;;;-1.80;99.90;;;;;;5028639;28;20425;-77
2023/01/18 08:06:16;;;;;;;22.90;20.50;;;-1.70;99.90;;;;;;5027660;28;20415;-75
2023/01/18 08:08:43;;;;;;;22.35;20.02;;;-1.60;99.90;;;;;;5029354;28;20885;-76
2023/01/18 08:11:11;;;;;;;22.27;19.88;;;-1.60;99.90;;;;;;5030647;28;20434;-76
2023/01/18 08:13:38;;;;;;;21.40;19.20;;;-1.60;99.90;;;;;;5028565;28;20761;-76
2023/01/18 08:16:07;;;;;;;21.67;19.48;;;-1.60;99.90;;;;;;5028183;28;20534;-77
2023/01/18 08:18:34;;;;;;;22.48;20.08;;;-1.60;99.90;;;;;;5026894;28;20439;-78
2023/01/18 08:21:02;;;;;;;23.38;19.73;;;-1.50;99.90;;;;;;5028338;28;20425;-76
2023/01/18 08:23:29;;;;;;;23.40;21.00;;;-1.40;99.90;;;;;;5033254;28;20422;-78
2023/01/18 08:26:00;;;;;;;22.60;20.20;;;-1.40;99.90;;;;;;5029656;28;20440;-76
2023/01/18 08:28:27;;;;;;;22.60;20.20;;;-1.30;99.90;;;;;;5026117;28;20461;-76
2023/01/18 08:31:04;;;;;;;22.10;19.80;;;-1.30;99.90;;;;;;5028328;28;20434;-76
2023/01/18 08:33:31;;;;;;;23.30;20.10;;;-1.30;99.90;;;;;;5029985;28;21239;-77
2023/01/18 08:35:57;;;;;;;21.50;19.40;;;-1.20;99.90;;;;;;5036535;28;20441;-76
2023/01/18 08:38:25;;;;;;;22.95;18.75;;;-1.20;99.90;;;;;;5039693;28;20415;-76
2023/01/18 08:40:52;;;;;;;21.40;19.30;;;-1.10;99.90;;;;;;5044197;28;20543;-76
2023/01/18 08:43:22;;;;;;;21.38;18.13;;;-1.00;99.90;;;;;;5042377;28;20422;-76
2023/01/18 08:45:50;;;;;;;22.70;18.67;;;-1.00;99.90;;;;;;5044920;28;20433;-76
2023/01/18 08:48:17;;;;;;;19.92;17.83;;;-0.90;99.90;;;;;;5048125;28;20399;-77
2023/01/18 08:50:44;;;;;;;20.52;18.40;;;-0.90;99.90;;;;;;5049990;28;20407;-76
2023/01/18 08:53:12;;;;;;;19.10;16.90;;;-0.80;99.90;;;;;;5051966;28;20480;-76
2023/01/18 08:55:40;;;;;;;21.60;17.45;;;-0.70;99.90;;;;;;5039999;28;20446;-77
2023/01/18 08:58:06;;;;;;;19.27;17.27;;;-0.60;99.90;;;;;;5046940;28;20473;-78
2023/01/18 09:00:33;;;;;;;18.23;16.27;;;-0.50;99.90;;;;;;5047790;28;20457;-76
2023/01/18 09:03:01;;;;;;;19.47;16.73;;;-0.50;99.90;;;;;;5048985;28;20531;-75
2023/01/18 09:05:28;;;;;;;19.35;17.35;;;-0.40;99.90;;;;;;5044637;28;20448;-77
2023/01/18 09:07:56;;;;;;;19.10;17.17;;;-0.40;99.90;;;;;;5036279;28;20422;-78
2023/01/18 09:10:23;;;;;;;19.23;16.93;;;-0.40;99.90;;;;;;5034159;28;20439;-78
2023/01/18 09:12:51;;;;;;;18.60;16.40;;;-0.30;99.90;;;;;;5033742;28;20431;-77
2023/01/18 09:15:18;;;;;;;20.48;17.35;;;-0.30;99.90;;;;;;5033072;28;20431;-76
2023/01/18 09:17:44;;;;;;;18.27;16.38;;;-0.20;99.90;;;;;;5028823;28;20808;-78
2023/01/18 09:20:12;;;;;;;19.60;17.50;;;-0.20;99.90;;;;;;5030797;28;20956;-77
2023/01/18 09:22:41;;;;;;;17.92;16.02;;;-0.20;99.90;;;;;;5029393;28;20442;-77
2023/01/18 09:25:09;;;;;;;19.55;17.48;;;-0.10;99.90;;;;;;5030714;28;20419;-78
2023/01/18 09:27:36;;;;;;;20.15;16.98;;;-0.10;99.90;;;;;;5030111;28;20505;-76
2023/01/18 09:30:05;;;;;;;19.20;16.40;;;0.00;99.90;;;;;;5030353;28;20470;-76
2023/01/18 09:32:31;;;;;;;18.50;16.20;;;0.10;99.90;;;;;;5026104;28;20433;-76
2023/01/18 09:34:58;;;;;;;21.83;16.30;;;0.10;99.90;;;;;;5031213;28;20419;-76
2023/01/18 09:37:25;;;;;;;20.20;17.85;;;0.20;99.90;;;;;;5029713;28;21105;-77
2023/01/18 09:39:51;;;;;;;18.48;16.45;;;0.30;99.90;;;;;;5031949;28;20438;-76
2023/01/18 09:42:21;;;;;;;19.60;16.25;;;0.40;99.90;;;;;;5028699;28;20434;-76
2023/01/18 09:44:51;;;;;;;18.60;16.67;;;0.40;99.90;;;;;;5030779;28;20435;-76
2023/01/18 09:47:23;;;;;;;18.67;16.70;;;0.50;99.90;;;;;;5031182;28;20457;-76
2023/01/18 09:49:55;;;;;;;19.77;17.50;;;0.70;99.90;;;;;;5031566;28;20418;-75
2023/01/18 09:52:32;;;;;;;18.00;16.27;;;0.90;99.90;;;;;;5032085;28;20466;-76
2023/01/18 09:55:07;;;;;;;20.50;17.15;;;1.10;99.90;;;;;;5032546;28;20916;-76
2023/01/18 09:57:50;;;;;;;17.52;15.70;;;1.20;99.90;;;;;;5030291;28;20454;-76
2023/01/18 10:00:21;;;;;;;18.75;16.95;;;1.40;99.90;;;;;;5029418;28;20425;-76
2023/01/18 10:02:54;;;;;;;19.90;15.80;;;1.60;99.90;;;;;;5033261;28;20488;-76
2023/01/18 10:05:24;;;;;;;18.35;16.48;;;1.70;99.90;;;;;;5048025;28;20556;-77
2023/01/18 10:08:02;;;;;;;17.52;15.70;;;1.70;98.80;;;;;;5050338;28;20406;-76
2023/01/18 10:10:33;;;;;;;18.08;16.17;;;1.70;99.20;;;;;;5049604;28;20821;-76
2023/01/18 10:13:16;;;;;;;18.33;16.35;;;1.80;99.90;;;;;;5046494;28;20441;-75
2023/01/18 10:15:43;;;;;;;19.05;16.77;;;1.80;99.20;;;;;;5047983;28;20623;-76
2023/01/18 10:18:14;;;;;;;17.33;15.63;;;1.90;99.90;;;;;;5038269;28;20438;-77
2023/01/18 10:20:47;;;;;;;19.73;16.70;;;2.00;99.60;;;;;;5031420;28;20441;-76
2023/01/18 10:23:21;;;;;;;16.23;14.53;;;2.10;99.10;;;;;;5019990;28;20422;-77
2023/01/18 10:25:54;;;;;;;17.00;15.40;;;2.20;97.40;;;;;;5034303;28;20426;-77
2023/01/18 10:28:34;;;;;;;16.40;14.80;;;2.30;96.30;;;;;;5041781;28;20478;-77
2023/01/18 10:31:22;;;;;;;16.77;15.18;;;2.30;95.60;;;;;;5047467;28;20435;-76
2023/01/18 10:33:53;;;;;;;16.85;15.15;;;2.50;96.20;;;;;;5044754;28;20483;-77
2023/01/18 10:36:25;;;;;;;16.08;14.52;;;2.50;95.80;;;;;;5030294;28;20435;-76
2023/01/18 10:38:53;;;;;;;15.97;14.37;;;2.60;94.30;;;;;;5030635;28;20434;-77
2023/01/18 10:41:24;;;;;;;17.25;15.45;;;2.50;94.40;;;;;;5030877;28;20440;-76
2023/01/18 10:43:52;;;;;;;17.90;16.08;;;2.50;94.20;;;;;;5028718;28;20415;-76
2023/01/18 10:46:19;;;;;;;16.42;14.73;;;2.50;94.20;;;;;;5028176;28;20816;-77
2023/01/18 10:48:47;;;;;;;19.30;15.17;;;2.50;94.30;;;;;;5028272;28;20430;-76
2023/01/18 10:51:30;;;;;;;17.50;15.70;;;2.60;94.70;;;;;;5028475;28;20913;-77
2023/01/18 10:53:57;;;;;;;16.90;15.10;;;2.70;94.30;;;;;;5027817;28;20438;-76
2023/01/18 10:56:26;;;;;;;16.33;14.60;;;2.80;92.90;;;;;;5030213;28;20539;-77
2023/01/18 10:58:56;;;;;;;16.60;14.90;;;2.90;92.40;;;;;;5016608;28;20407;-76
2023/01/18 11:01:26;;;;;;;15.90;14.40;;;2.80;92.60;;;;;;5036717;28;20415;-76
2023/01/18 11:03:55;;;;;;;16.05;14.45;;;2.80;92.70;;;;;;5046785;28;20942;-77
2023/01/18 11:06:25;;;;;;;16.50;14.90;;;2.90;92.00;;;;;;5043706;28;20434;-78
2023/01/18 11:08:54;;;;;;;15.30;13.70;;;3.10;91.80;;;;;;5042641;28;20422;-77
2023/01/18 11:12:32;;;;;;;16.05;14.55;;;3.20;91.80;;;;;;5038051;28;20824;-77
2023/01/18 11:14:26;;;;;;;15.30;13.90;;;3.40;91.60;;;;;;5031263;28;20511;-77
2023/01/18 11:17:01;;;;;;;16.85;15.23;;;3.70;90.60;;;;;;5030982;28;20530;-77
2023/01/18 11:19:28;;;;;;;16.60;14.40;;;3.80;90.00;;;;;;5028724;28;20494;-78
2023/01/18 11:21:55;;;;;;;15.48;14.05;;;3.90;90.10;;;;;;5027611;28;20423;-78
2023/01/18 11:24:27;;;;;;;16.35;14.68;;;4.00;86.50;;;;;;5027905;28;20430;-78
2023/01/18 11:26:58;;;;;;;15.95;14.35;;;4.20;86.40;;;;;;5027675;28;20419;-76
2023/01/18 11:29:28;;;;;;;14.70;13.20;;;4.40;87.20;;;;;;5027204;28;20527;-78
2023/01/18 11:32:00;;;;;;;14.27;12.97;;;4.60;80.70;;;;;;5027144;28;20449;-78
2023/01/18 11:34:30;;;;;;;14.13;12.83;;;4.70;82.60;;;;;;5025489;28;20435;-79
2023/01/18 11:36:58;;;;;;;14.98;13.57;;;4.70;81.20;;;;;;5026743;28;20422;-78
2023/01/18 11:39:29;;;;;;;14.27;12.93;;;4.70;80.90;;;;;;5026662;28;20514;-78
2023/01/18 11:42:22;;;;;;;14.95;13.65;;;4.60;80.70;;;;;;5026315;28;21193;-78
2023/01/18 11:45:14;;;;;;;14.50;13.00;;;4.60;82.10;;;;;;5025048;28;20426;-77
2023/01/18 11:47:55;;;;;;;14.43;12.93;;;4.50;81.10;;;;;;5014546;28;20762;-76
2023/01/18 11:50:29;;;;;;;13.73;12.32;;;4.60;79.80;;;;;;5027235;28;20518;-77
2023/01/18 11:53:02;;;;;;;11.93;10.83;;;4.80;79.60;;;;;;5024590;28;20427;-77
2023/01/18 11:55:37;;;;;;;11.88;10.70;;;4.90;78.00;;;;;;5026482;28;20481;-78
2023/01/18 11:58:07;;;;;;;11.60;10.50;;;5.20;77.30;;;;;;5028402;28;20536;-78
2023/01/18 12:00:47;;;;;;;11.07;9.98;;;5.60;74.50;;;;;;5026016;28;20494;-78
2023/01/18 12:03:33;;;;;;;11.55;10.43;;;6.20;70.80;;;;;;5024810;28;20426;-78
2023/01/18 12:06:05;;;;;;;11.48;10.48;;;6.60;70.30;;;;;;5025959;28;20423;-78
2023/01/18 12:08:44;;;;;;;10.53;9.60;;;7.00;66.80;;;;;;5026354;28;20441;-78
2023/01/18 12:11:45;;;;;;;10.05;8.95;;;7.30;64.80;;;;;;5026797;28;20460;-78
2023/01/18 12:14:26;;;;;;;10.02;9.13;;;7.40;65.00;;;;;;5027576;28;20809;-78
2023/01/18 12:17:06;;;;;;;9.90;9.07;;;7.70;63.20;;;;;;5021353;28;20928;-78
2023/01/18 12:20:07;;;;;;;11.57;8.70;;;7.70;60.60;;;;;;5028209;28;20426;-79
2023/01/18 12:23:08;;;;;;;9.20;8.30;;;7.70;60.60;;;;;;5026064;28;20853;-77
2023/01/18 12:26:00;;;;;;;9.38;8.48;;;8.10;59.30;;;;;;5024171;28;20488;-77
2023/01/18 12:28:38;;;;;;;9.20;8.40;;;8.10;58.10;;;;;;5016239;28;20438;-77
2023/01/18 12:31:19;;;;;;;9.70;8.70;;;8.60;58.70;;;;;;5029845;28;20550;-77
2023/01/18 12:33:53;;;;;;;9.30;8.30;;;10.10;56.40;;;;;;5029531;28;20442;-77
2023/01/18 12:36:40;;;;;;;9.00;8.10;;;10.90;54.10;;;;;;5029552;28;20415;-77
2023/01/18 12:39:18;;;;;;;10.63;8.52;;;12.10;51.10;;;;;;5027850;28;20427;-78
2023/01/18 12:41:57;;;;;;;9.23;8.43;;;13.50;47.60;;;;;;5025688;28;20535;-79
2023/01/18 12:44:53;;;;;;;9.70;8.60;;;13.40;44.90;;;;;;5024344;28;20446;-79
2023/01/18 12:47:33;;;;;;;11.38;8.40;;;13.40;46.40;;;;;;5026876;28;20899;-79
2023/01/18 12:50:03;;;;;;;16.70;10.15;;;13.30;44.90;;;;;;5028645;28;20726;-79
2023/01/18 12:52:44;;;;;;;8.40;7.60;;;14.00;43.80;;;;;;5028325;28;20513;-80
2023/01/18 12:55:19;;;;;;;8.17;6.80;;;15.20;41.30;;;;;;5028202;28;20965;-78
2023/01/18 12:57:47;;;;;;;8.45;7.65;;;16.20;39.00;;;;;;5027534;28;20450;-79
2023/01/18 13:00:21;;;;;;;7.85;6.70;;;16.40;38.40;;;;;;5025421;28;20446;-78
2023/01/18 13:02:53;;;;;;;9.95;7.40;;;16.40;37.20;;;;;;5026812;28;20415;-79
2023/01/18 13:05:33;;;;;;;8.10;7.30;;;15.60;37.50;;;;;;5027513;28;20427;-78
2023/01/18 13:08:05;;;;;;;11.02;7.88;;;15.20;39.90;;;;;;5042645;28;20415;-77
2023/01/18 13:10:34;;;;;;;9.40;7.15;;;15.40;38.90;;;;;;5038483;28;20538;-80
2023/01/18 13:13:04;;;;;;;8.80;7.70;;;15.90;38.60;;;;;;5032667;28;20433;-79
2023/01/18 13:15:39;;;;;;;9.27;7.50;;;15.00;38.60;;;;;;5028287;28;20485;-79
2023/01/18 13:18:12;;;;;;;7.55;6.85;;;14.80;39.50;;;;;;5028482;28;20781;-79